AAY71 KRAP-KLAS
Flight info
| Callsign | AAY71 |
|---|---|
| Flight time | 1h 57m |
| Altitude | 34000 |
| Route | KD75U KU60Q EHK STEWW CHOWW4 |
| Aircraft | A320/M-SDE3FGHIRWY/LB1 |
Departure
| Time | 2026-05-05 17:43 |
|---|---|
| Airport | Rapid City Regional Airport (KRAP) |
Arrival
| Time | 2026-05-05 19:40 |
|---|---|
| Airport | Harry Reid International Airport (KLAS) |
| Time | Latitude | Longitude | Altitude | Speed | Heading |
|---|---|---|---|---|---|
| 2026-05-05 17:13 | 44.03957 | -103.06061 | 3157 ft | 0 kts | 110° |
| 2026-05-05 17:35 | 44.03958 | -103.06064 | 3157 ft | 2 kts | 110° |
| 2026-05-05 17:36 | 44.03965 | -103.06097 | 3157 ft | 4 kts | 90° |
| 2026-05-05 17:36 | 44.03959 | -103.06124 | 3156 ft | 2 kts | 27° |
| 2026-05-05 17:36 | 44.03957 | -103.06125 | 3156 ft | 0 kts | 25° |
| 2026-05-05 17:38 | 44.03998 | -103.06096 | 3157 ft | 13 kts | 30° |
| 2026-05-05 17:38 | 44.04029 | -103.05982 | 3158 ft | 15 kts | 107° |
| 2026-05-05 17:39 | 44.03990 | -103.05851 | 3157 ft | 12 kts | 106° |
| 2026-05-05 17:39 | 44.04017 | -103.05730 | 3158 ft | 14 kts | 71° |
| 2026-05-05 17:39 | 44.03944 | -103.05627 | 3157 ft | 20 kts | 152° |
| 2026-05-05 17:39 | 44.03827 | -103.05539 | 3155 ft | 18 kts | 152° |
| 2026-05-05 17:40 | 44.03717 | -103.05459 | 3154 ft | 17 kts | 152° |
| 2026-05-05 17:40 | 44.03615 | -103.05384 | 3153 ft | 16 kts | 152° |
| 2026-05-05 17:40 | 44.03520 | -103.05313 | 3151 ft | 15 kts | 152° |
| 2026-05-05 17:40 | 44.03429 | -103.05245 | 3149 ft | 14 kts | 151° |
| 2026-05-05 17:41 | 44.03343 | -103.05181 | 3148 ft | 14 kts | 152° |
| 2026-05-05 17:41 | 44.03251 | -103.05100 | 3147 ft | 15 kts | 121° |
| 2026-05-05 17:41 | 44.03281 | -103.04975 | 3145 ft | 11 kts | 57° |
| 2026-05-05 17:41 | 44.03324 | -103.04975 | 3145 ft | 0 kts | 331° |
| 2026-05-05 17:42 | 44.03326 | -103.04976 | 3145 ft | 6 kts | 331° |
| 2026-05-05 17:42 | 44.03610 | -103.05187 | 3151 ft | 83 kts | 332° |
| 2026-05-05 17:42 | 44.04311 | -103.05706 | 3166 ft | 142 kts | 331° |
| 2026-05-05 17:42 | 44.05218 | -103.06402 | 3660 ft | 149 kts | 332° |
| 2026-05-05 17:43 | 44.06115 | -103.07096 | 4389 ft | 149 kts | 332° |
| 2026-05-05 17:43 | 44.07029 | -103.07810 | 5020 ft | 156 kts | 332° |
| 2026-05-05 17:43 | 44.07983 | -103.08715 | 5260 ft | 179 kts | 312° |
| 2026-05-05 17:43 | 44.08474 | -103.10429 | 5489 ft | 210 kts | 276° |
| 2026-05-05 17:44 | 44.08136 | -103.12564 | 5762 ft | 244 kts | 251° |
| 2026-05-05 17:44 | 44.07230 | -103.14667 | 6241 ft | 267 kts | 238° |
| 2026-05-05 17:44 | 44.06119 | -103.16792 | 7034 ft | 274 kts | 238° |
| 2026-05-05 17:44 | 44.04987 | -103.18954 | 7891 ft | 278 kts | 238° |
| 2026-05-05 17:45 | 44.03846 | -103.21137 | 8747 ft | 281 kts | 238° |
| 2026-05-05 17:45 | 44.02687 | -103.23349 | 9584 ft | 285 kts | 238° |
| 2026-05-05 17:45 | 44.01501 | -103.25600 | 10346 ft | 294 kts | 238° |
| 2026-05-05 17:45 | 44.00249 | -103.27982 | 10606 ft | 316 kts | 239° |
| 2026-05-05 17:46 | 43.98918 | -103.30528 | 10979 ft | 332 kts | 239° |
| 2026-05-05 17:46 | 43.97561 | -103.33112 | 11677 ft | 338 kts | 240° |
| 2026-05-05 17:46 | 43.96167 | -103.35751 | 12444 ft | 339 kts | 240° |
| 2026-05-05 17:46 | 43.94760 | -103.38392 | 13240 ft | 339 kts | 240° |
| 2026-05-05 17:47 | 43.93355 | -103.41029 | 14029 ft | 339 kts | 240° |
| 2026-05-05 17:47 | 43.91950 | -103.43672 | 14822 ft | 339 kts | 240° |
| 2026-05-05 17:47 | 43.90554 | -103.46307 | 15588 ft | 339 kts | 240° |
| 2026-05-05 17:47 | 43.89175 | -103.48910 | 16348 ft | 338 kts | 240° |
| 2026-05-05 17:48 | 43.87780 | -103.51533 | 17066 ft | 337 kts | 241° |
| 2026-05-05 17:48 | 43.86388 | -103.54148 | 17765 ft | 337 kts | 241° |
| 2026-05-05 17:48 | 43.84992 | -103.56767 | 18483 ft | 338 kts | 241° |
| 2026-05-05 17:48 | 43.83595 | -103.59388 | 19154 ft | 338 kts | 241° |
| 2026-05-05 17:49 | 43.82195 | -103.62018 | 19775 ft | 340 kts | 241° |
| 2026-05-05 17:49 | 43.80785 | -103.64661 | 20362 ft | 342 kts | 240° |
| 2026-05-05 17:49 | 43.79370 | -103.67309 | 20961 ft | 343 kts | 241° |
| 2026-05-05 17:49 | 43.77944 | -103.69981 | 21524 ft | 345 kts | 241° |
| 2026-05-05 17:50 | 43.76526 | -103.72636 | 22051 ft | 347 kts | 240° |
| 2026-05-05 17:50 | 43.75078 | -103.75339 | 22556 ft | 349 kts | 240° |
| 2026-05-05 17:50 | 43.73627 | -103.78045 | 23046 ft | 351 kts | 240° |
| 2026-05-05 17:50 | 43.72664 | -103.79841 | 23379 ft | 352 kts | 240° |
| 2026-05-05 17:51 | 43.70721 | -103.83460 | 24028 ft | 354 kts | 240° |
| 2026-05-05 17:51 | 43.69250 | -103.86196 | 24482 ft | 355 kts | 240° |
| 2026-05-05 17:51 | 43.67771 | -103.88944 | 24928 ft | 357 kts | 240° |
| 2026-05-05 17:51 | 43.66285 | -103.91702 | 25349 ft | 358 kts | 240° |
| 2026-05-05 17:52 | 43.65296 | -103.93536 | 25640 ft | 359 kts | 239° |
| 2026-05-05 17:52 | 43.63800 | -103.96302 | 26056 ft | 360 kts | 239° |
| 2026-05-05 17:52 | 43.62298 | -103.99080 | 26460 ft | 361 kts | 239° |
| 2026-05-05 17:52 | 43.60794 | -104.01864 | 26837 ft | 362 kts | 239° |
| 2026-05-05 17:53 | 43.59283 | -104.04664 | 27200 ft | 364 kts | 239° |
| 2026-05-05 17:53 | 43.57762 | -104.07478 | 27560 ft | 366 kts | 239° |
| 2026-05-05 17:53 | 43.56253 | -104.10261 | 27885 ft | 367 kts | 238° |
| 2026-05-05 17:53 | 43.54717 | -104.13090 | 28220 ft | 369 kts | 238° |
| 2026-05-05 17:54 | 43.53178 | -104.15920 | 28545 ft | 370 kts | 238° |
| 2026-05-05 17:54 | 43.51630 | -104.18762 | 28836 ft | 371 kts | 238° |
| 2026-05-05 17:54 | 43.50076 | -104.21618 | 29129 ft | 372 kts | 238° |
| 2026-05-05 17:54 | 43.48519 | -104.24482 | 29410 ft | 373 kts | 238° |
| 2026-05-05 17:55 | 43.46954 | -104.27353 | 29674 ft | 375 kts | 238° |
| 2026-05-05 17:55 | 43.45403 | -104.30199 | 29935 ft | 376 kts | 238° |
| 2026-05-05 17:55 | 43.43830 | -104.33084 | 30188 ft | 377 kts | 238° |
| 2026-05-05 17:55 | 43.42249 | -104.35979 | 30418 ft | 378 kts | 238° |
| 2026-05-05 17:56 | 43.40668 | -104.38873 | 30721 ft | 377 kts | 237° |
| 2026-05-05 17:56 | 43.39092 | -104.41751 | 31011 ft | 377 kts | 237° |
| 2026-05-05 17:56 | 43.37525 | -104.44607 | 31283 ft | 377 kts | 237° |
| 2026-05-05 17:56 | 43.35943 | -104.47486 | 31567 ft | 377 kts | 237° |
| 2026-05-05 17:57 | 43.34358 | -104.50364 | 31864 ft | 376 kts | 237° |
| 2026-05-05 17:57 | 43.32779 | -104.53225 | 32149 ft | 376 kts | 237° |
| 2026-05-05 17:57 | 43.31224 | -104.56047 | 32430 ft | 375 kts | 237° |
| 2026-05-05 17:57 | 43.29655 | -104.58904 | 32705 ft | 374 kts | 237° |
| 2026-05-05 17:58 | 43.28087 | -104.61760 | 32986 ft | 374 kts | 237° |
| 2026-05-05 17:58 | 43.26520 | -104.64608 | 33246 ft | 374 kts | 237° |
| 2026-05-05 17:58 | 43.24949 | -104.67455 | 33528 ft | 374 kts | 237° |
| 2026-05-05 17:58 | 43.23379 | -104.70294 | 33776 ft | 373 kts | 237° |
| 2026-05-05 17:59 | 43.21808 | -104.73124 | 33991 ft | 373 kts | 237° |
| 2026-05-05 17:59 | 43.18682 | -104.78741 | 34054 ft | 371 kts | 237° |
| 2026-05-05 18:00 | 43.15552 | -104.84365 | 34054 ft | 371 kts | 237° |
| 2026-05-05 18:00 | 43.12424 | -104.89997 | 34055 ft | 371 kts | 237° |
| 2026-05-05 18:01 | 43.09309 | -104.95594 | 34053 ft | 372 kts | 237° |
| 2026-05-05 18:01 | 43.06161 | -105.01222 | 34033 ft | 374 kts | 237° |
| 2026-05-05 18:02 | 43.02945 | -105.06975 | 34045 ft | 385 kts | 237° |
| 2026-05-05 18:02 | 42.99672 | -105.12805 | 34045 ft | 387 kts | 236° |
| 2026-05-05 18:03 | 42.96413 | -105.18615 | 34047 ft | 387 kts | 236° |
| 2026-05-05 18:03 | 42.93127 | -105.24463 | 34046 ft | 387 kts | 236° |
| 2026-05-05 18:04 | 42.89847 | -105.30270 | 34042 ft | 387 kts | 236° |
| 2026-05-05 18:04 | 42.86549 | -105.36086 | 34040 ft | 387 kts | 236° |
| 2026-05-05 18:05 | 42.83246 | -105.41919 | 34043 ft | 388 kts | 236° |
| 2026-05-05 18:05 | 42.79962 | -105.47707 | 34044 ft | 387 kts | 236° |
| 2026-05-05 18:06 | 42.76654 | -105.53526 | 34049 ft | 387 kts | 236° |
| 2026-05-05 18:06 | 42.73373 | -105.59291 | 34048 ft | 387 kts | 236° |
| 2026-05-05 18:07 | 42.70075 | -105.65080 | 34047 ft | 387 kts | 236° |
| 2026-05-05 18:07 | 42.66769 | -105.70868 | 34049 ft | 387 kts | 236° |
| 2026-05-05 18:08 | 42.63471 | -105.76606 | 34049 ft | 386 kts | 235° |
| 2026-05-05 18:08 | 42.60158 | -105.82364 | 34050 ft | 386 kts | 235° |
| 2026-05-05 18:09 | 42.56852 | -105.88112 | 34051 ft | 386 kts | 235° |
| 2026-05-05 18:09 | 42.53567 | -105.93824 | 34049 ft | 386 kts | 235° |
| 2026-05-05 18:10 | 42.50257 | -105.99545 | 34049 ft | 385 kts | 235° |
| 2026-05-05 18:10 | 42.46935 | -106.05261 | 34045 ft | 386 kts | 234° |
| 2026-05-05 18:11 | 42.43608 | -106.10935 | 34036 ft | 386 kts | 234° |
| 2026-05-05 18:11 | 42.40254 | -106.16639 | 34035 ft | 387 kts | 234° |
| 2026-05-05 18:12 | 42.36895 | -106.22342 | 34033 ft | 387 kts | 234° |
| 2026-05-05 18:12 | 42.33537 | -106.28030 | 34028 ft | 387 kts | 234° |
| 2026-05-05 18:13 | 42.30194 | -106.33686 | 34032 ft | 388 kts | 234° |
| 2026-05-05 18:13 | 42.26821 | -106.39393 | 34041 ft | 388 kts | 234° |
| 2026-05-05 18:14 | 42.23451 | -106.45087 | 34034 ft | 388 kts | 234° |
| 2026-05-05 18:14 | 42.20073 | -106.50773 | 34028 ft | 388 kts | 234° |
| 2026-05-05 18:15 | 42.16712 | -106.56422 | 34027 ft | 389 kts | 234° |
| 2026-05-05 18:15 | 42.13315 | -106.62119 | 34022 ft | 390 kts | 234° |
| 2026-05-05 18:16 | 42.09907 | -106.67818 | 34022 ft | 391 kts | 234° |
| 2026-05-05 18:16 | 42.06493 | -106.73529 | 34015 ft | 392 kts | 234° |
| 2026-05-05 18:17 | 42.03083 | -106.79214 | 34015 ft | 392 kts | 234° |
| 2026-05-05 18:17 | 41.99650 | -106.84936 | 34006 ft | 393 kts | 234° |
| 2026-05-05 18:18 | 41.96238 | -106.90623 | 34014 ft | 392 kts | 234° |
| 2026-05-05 18:18 | 41.92803 | -106.96314 | 34021 ft | 392 kts | 233° |
| 2026-05-05 18:19 | 41.89361 | -107.01999 | 34021 ft | 392 kts | 234° |
| 2026-05-05 18:19 | 41.85919 | -107.07683 | 34016 ft | 392 kts | 233° |
| 2026-05-05 18:20 | 41.82498 | -107.13325 | 34009 ft | 392 kts | 233° |
| 2026-05-05 18:20 | 41.79044 | -107.19008 | 34000 ft | 392 kts | 233° |
| 2026-05-05 18:21 | 41.75583 | -107.24691 | 33994 ft | 393 kts | 233° |
| 2026-05-05 18:21 | 41.72129 | -107.30348 | 33992 ft | 394 kts | 233° |
| 2026-05-05 18:22 | 41.68646 | -107.36049 | 33991 ft | 395 kts | 233° |
| 2026-05-05 18:22 | 41.65150 | -107.41762 | 33991 ft | 396 kts | 233° |
| 2026-05-05 18:23 | 41.61651 | -107.47480 | 33991 ft | 397 kts | 233° |
| 2026-05-05 18:23 | 41.58159 | -107.53170 | 33988 ft | 398 kts | 233° |
| 2026-05-05 18:24 | 41.54636 | -107.58882 | 33987 ft | 398 kts | 233° |
| 2026-05-05 18:24 | 41.51126 | -107.64562 | 33986 ft | 399 kts | 233° |
| 2026-05-05 18:25 | 41.47598 | -107.70278 | 33985 ft | 399 kts | 233° |
| 2026-05-05 18:25 | 41.44059 | -107.75993 | 33985 ft | 399 kts | 233° |
| 2026-05-05 18:26 | 41.40528 | -107.81672 | 33988 ft | 399 kts | 233° |
| 2026-05-05 18:26 | 41.36989 | -107.87367 | 33985 ft | 399 kts | 233° |
| 2026-05-05 18:27 | 41.33449 | -107.93063 | 33985 ft | 399 kts | 233° |
| 2026-05-05 18:27 | 41.29905 | -107.98737 | 33984 ft | 399 kts | 233° |
| 2026-05-05 18:28 | 41.24558 | -108.07286 | 33966 ft | 402 kts | 233° |
| 2026-05-05 18:28 | 41.20994 | -108.12982 | 33961 ft | 404 kts | 233° |
| 2026-05-05 18:29 | 41.17384 | -108.18740 | 33959 ft | 406 kts | 233° |
| 2026-05-05 18:29 | 41.13752 | -108.24513 | 33964 ft | 407 kts | 233° |
| 2026-05-05 18:30 | 41.10129 | -108.30243 | 33968 ft | 408 kts | 233° |
| 2026-05-05 18:30 | 41.06466 | -108.36049 | 33971 ft | 409 kts | 233° |
| 2026-05-05 18:31 | 41.02809 | -108.41837 | 33975 ft | 410 kts | 233° |
| 2026-05-05 18:31 | 40.99166 | -108.47585 | 33968 ft | 410 kts | 232° |
| 2026-05-05 18:32 | 40.95479 | -108.53383 | 33967 ft | 411 kts | 232° |
| 2026-05-05 18:32 | 40.91817 | -108.59139 | 33963 ft | 411 kts | 232° |
| 2026-05-05 18:33 | 40.88120 | -108.64940 | 33963 ft | 412 kts | 232° |
| 2026-05-05 18:33 | 40.84436 | -108.70707 | 33962 ft | 413 kts | 232° |
| 2026-05-05 18:34 | 40.80718 | -108.76519 | 33963 ft | 414 kts | 232° |
| 2026-05-05 18:34 | 40.76993 | -108.82332 | 33964 ft | 415 kts | 232° |
| 2026-05-05 18:35 | 40.73280 | -108.88108 | 33952 ft | 415 kts | 232° |
| 2026-05-05 18:35 | 40.69536 | -108.93924 | 33944 ft | 415 kts | 232° |
| 2026-05-05 18:36 | 40.65790 | -108.99735 | 33947 ft | 416 kts | 232° |
| 2026-05-05 18:36 | 40.62050 | -109.05522 | 33936 ft | 418 kts | 232° |
| 2026-05-05 18:37 | 40.58269 | -109.11367 | 33937 ft | 418 kts | 232° |
| 2026-05-05 18:37 | 40.54499 | -109.17177 | 33935 ft | 419 kts | 232° |
| 2026-05-05 18:38 | 40.50691 | -109.23026 | 33933 ft | 420 kts | 232° |
| 2026-05-05 18:38 | 40.46872 | -109.28877 | 33925 ft | 421 kts | 232° |
| 2026-05-05 18:39 | 40.43072 | -109.34697 | 33920 ft | 423 kts | 231° |
| 2026-05-05 18:39 | 40.39242 | -109.40574 | 33912 ft | 424 kts | 231° |
| 2026-05-05 18:40 | 40.35396 | -109.46471 | 33906 ft | 425 kts | 231° |
| 2026-05-05 18:40 | 40.31554 | -109.52335 | 33905 ft | 426 kts | 231° |
| 2026-05-05 18:41 | 40.28307 | -109.57273 | 33906 ft | 427 kts | 231° |
| 2026-05-05 18:41 | 40.24439 | -109.63139 | 33904 ft | 428 kts | 231° |
| 2026-05-05 18:42 | 40.20546 | -109.69022 | 33899 ft | 429 kts | 231° |
| 2026-05-05 18:42 | 40.16627 | -109.74952 | 33894 ft | 430 kts | 231° |
| 2026-05-05 18:43 | 40.12710 | -109.80877 | 33894 ft | 431 kts | 231° |
| 2026-05-05 18:43 | 40.08806 | -109.86767 | 33895 ft | 431 kts | 231° |
| 2026-05-05 18:44 | 40.04868 | -109.92692 | 33896 ft | 432 kts | 230° |
| 2026-05-05 18:44 | 40.00910 | -109.98623 | 33896 ft | 432 kts | 230° |
| 2026-05-05 18:45 | 39.96935 | -110.04513 | 33895 ft | 432 kts | 230° |
| 2026-05-05 18:45 | 39.92913 | -110.10353 | 33891 ft | 432 kts | 230° |
| 2026-05-05 18:46 | 39.88905 | -110.16149 | 33895 ft | 432 kts | 229° |
| 2026-05-05 18:46 | 39.84880 | -110.21965 | 33895 ft | 432 kts | 230° |
| 2026-05-05 18:47 | 39.80848 | -110.27789 | 33890 ft | 432 kts | 230° |
| 2026-05-05 18:47 | 39.76844 | -110.33565 | 33898 ft | 432 kts | 230° |
| 2026-05-05 18:48 | 39.72817 | -110.39372 | 33899 ft | 431 kts | 229° |
| 2026-05-05 18:48 | 39.68797 | -110.45153 | 33897 ft | 431 kts | 229° |
| 2026-05-05 18:49 | 39.64796 | -110.50894 | 33896 ft | 431 kts | 229° |
| 2026-05-05 18:49 | 39.60772 | -110.56663 | 33893 ft | 431 kts | 229° |
| 2026-05-05 18:50 | 39.56746 | -110.62416 | 33897 ft | 430 kts | 229° |
| 2026-05-05 18:50 | 39.52717 | -110.68169 | 33898 ft | 430 kts | 229° |
| 2026-05-05 18:51 | 39.48689 | -110.73908 | 33888 ft | 430 kts | 229° |
| 2026-05-05 18:51 | 39.44678 | -110.79613 | 33889 ft | 430 kts | 229° |
| 2026-05-05 18:52 | 39.40639 | -110.85341 | 33892 ft | 430 kts | 229° |
| 2026-05-05 18:52 | 39.36600 | -110.91057 | 33893 ft | 430 kts | 229° |
| 2026-05-05 18:53 | 39.32576 | -110.96745 | 33899 ft | 431 kts | 229° |
| 2026-05-05 18:53 | 39.28527 | -111.02465 | 33898 ft | 431 kts | 229° |
| 2026-05-05 18:54 | 39.24471 | -111.08178 | 33897 ft | 432 kts | 229° |
| 2026-05-05 18:54 | 39.20424 | -111.13863 | 33899 ft | 431 kts | 229° |
| 2026-05-05 18:55 | 39.16360 | -111.19571 | 33903 ft | 431 kts | 229° |
| 2026-05-05 18:55 | 39.12290 | -111.25270 | 33903 ft | 432 kts | 228° |
| 2026-05-05 18:56 | 39.08236 | -111.30931 | 33900 ft | 432 kts | 228° |
| 2026-05-05 18:56 | 39.04167 | -111.36626 | 33904 ft | 432 kts | 228° |
| 2026-05-05 18:57 | 39.00094 | -111.42309 | 33908 ft | 432 kts | 228° |
| 2026-05-05 18:57 | 38.96014 | -111.47976 | 33904 ft | 431 kts | 228° |
| 2026-05-05 18:58 | 38.91956 | -111.53608 | 33909 ft | 432 kts | 228° |
| 2026-05-05 18:58 | 38.87872 | -111.59262 | 33915 ft | 431 kts | 228° |
| 2026-05-05 18:59 | 38.83785 | -111.64920 | 33915 ft | 431 kts | 228° |
| 2026-05-05 18:59 | 38.79722 | -111.70529 | 33917 ft | 430 kts | 228° |
| 2026-05-05 19:00 | 38.75638 | -111.76158 | 33917 ft | 430 kts | 227° |
| 2026-05-05 19:00 | 38.71587 | -111.81720 | 33916 ft | 429 kts | 227° |
| 2026-05-05 19:01 | 38.67507 | -111.87322 | 33917 ft | 429 kts | 227° |
| 2026-05-05 19:01 | 38.63458 | -111.92877 | 33919 ft | 428 kts | 227° |
| 2026-05-05 19:02 | 38.59388 | -111.98447 | 33917 ft | 428 kts | 227° |
| 2026-05-05 19:02 | 38.55330 | -112.03999 | 33910 ft | 428 kts | 227° |
| 2026-05-05 19:03 | 38.51271 | -112.09538 | 33901 ft | 429 kts | 227° |
| 2026-05-05 19:03 | 38.47173 | -112.15111 | 33901 ft | 431 kts | 227° |
| 2026-05-05 19:04 | 38.43064 | -112.20687 | 33911 ft | 431 kts | 227° |
| 2026-05-05 19:04 | 38.38957 | -112.26247 | 33922 ft | 430 kts | 227° |
| 2026-05-05 19:05 | 38.34843 | -112.31811 | 33931 ft | 431 kts | 227° |
| 2026-05-05 19:05 | 38.30756 | -112.37342 | 33945 ft | 431 kts | 227° |
| 2026-05-05 19:06 | 38.26644 | -112.42896 | 33937 ft | 430 kts | 227° |
| 2026-05-05 19:06 | 38.22537 | -112.48440 | 33937 ft | 431 kts | 226° |
| 2026-05-05 19:07 | 38.18406 | -112.53985 | 33941 ft | 431 kts | 226° |
| 2026-05-05 19:07 | 38.14295 | -112.59493 | 33937 ft | 432 kts | 226° |
| 2026-05-05 19:08 | 38.10147 | -112.65054 | 33937 ft | 433 kts | 226° |
| 2026-05-05 19:08 | 38.05991 | -112.70620 | 33933 ft | 434 kts | 226° |
| 2026-05-05 19:09 | 38.01837 | -112.76166 | 33933 ft | 436 kts | 226° |
| 2026-05-05 19:09 | 37.97649 | -112.81743 | 33943 ft | 436 kts | 226° |
| 2026-05-05 19:10 | 37.93474 | -112.87297 | 33990 ft | 433 kts | 226° |
| 2026-05-05 19:10 | 37.89350 | -112.92772 | 33992 ft | 431 kts | 226° |
| 2026-05-05 19:11 | 37.85209 | -112.98257 | 33990 ft | 430 kts | 226° |
| 2026-05-05 19:11 | 37.81088 | -113.03706 | 33981 ft | 430 kts | 226° |
| 2026-05-05 19:12 | 37.76610 | -113.08681 | 33965 ft | 430 kts | 215° |
| 2026-05-05 19:12 | 37.71679 | -113.12959 | 33959 ft | 430 kts | 215° |
| 2026-05-05 19:13 | 37.66726 | -113.17259 | 33954 ft | 431 kts | 215° |
| 2026-05-05 19:13 | 37.61767 | -113.21550 | 33950 ft | 432 kts | 215° |
| 2026-05-05 19:14 | 37.56825 | -113.25821 | 33952 ft | 432 kts | 215° |
| 2026-05-05 19:14 | 37.51844 | -113.30122 | 33953 ft | 433 kts | 215° |
| 2026-05-05 19:15 | 37.46900 | -113.34390 | 33953 ft | 433 kts | 215° |
| 2026-05-05 19:15 | 37.41922 | -113.38680 | 33950 ft | 433 kts | 215° |
| 2026-05-05 19:16 | 37.36939 | -113.42961 | 33950 ft | 434 kts | 215° |
| 2026-05-05 19:16 | 37.31952 | -113.47237 | 33951 ft | 434 kts | 215° |
| 2026-05-05 19:17 | 37.26958 | -113.51506 | 33949 ft | 433 kts | 215° |
| 2026-05-05 19:17 | 37.21752 | -113.55211 | 33946 ft | 433 kts | 206° |
| 2026-05-05 19:18 | 37.16279 | -113.58401 | 33690 ft | 432 kts | 206° |
| 2026-05-05 19:18 | 37.13552 | -113.59995 | 33440 ft | 432 kts | 206° |
| 2026-05-05 19:18 | 37.10822 | -113.61594 | 33195 ft | 432 kts | 206° |
| 2026-05-05 19:19 | 37.08092 | -113.63193 | 32907 ft | 432 kts | 206° |
| 2026-05-05 19:19 | 37.05382 | -113.64779 | 31876 ft | 437 kts | 206° |
| 2026-05-05 19:19 | 37.02606 | -113.66406 | 30851 ft | 442 kts | 205° |
| 2026-05-05 19:19 | 36.99807 | -113.68042 | 30022 ft | 441 kts | 205° |
| 2026-05-05 19:20 | 36.97066 | -113.69634 | 29420 ft | 436 kts | 205° |
| 2026-05-05 19:20 | 36.94326 | -113.71222 | 28724 ft | 433 kts | 205° |
| 2026-05-05 19:20 | 36.91604 | -113.72802 | 28037 ft | 429 kts | 205° |
| 2026-05-05 19:20 | 36.88909 | -113.74373 | 27366 ft | 426 kts | 205° |
| 2026-05-05 19:21 | 36.86233 | -113.75937 | 26716 ft | 422 kts | 205° |
| 2026-05-05 19:21 | 36.83580 | -113.77488 | 26067 ft | 419 kts | 205° |
| 2026-05-05 19:21 | 36.80951 | -113.79027 | 25422 ft | 415 kts | 205° |
| 2026-05-05 19:21 | 36.78343 | -113.80549 | 24791 ft | 412 kts | 205° |
| 2026-05-05 19:22 | 36.75757 | -113.82055 | 24175 ft | 408 kts | 205° |
| 2026-05-05 19:22 | 36.73195 | -113.83544 | 23571 ft | 404 kts | 205° |
| 2026-05-05 19:22 | 36.70686 | -113.84998 | 23012 ft | 400 kts | 205° |
| 2026-05-05 19:22 | 36.68167 | -113.86455 | 22455 ft | 396 kts | 205° |
| 2026-05-05 19:23 | 36.65681 | -113.87894 | 21957 ft | 391 kts | 205° |
| 2026-05-05 19:23 | 36.63213 | -113.89323 | 21447 ft | 388 kts | 205° |
| 2026-05-05 19:23 | 36.60842 | -113.90793 | 20971 ft | 383 kts | 211° |
| 2026-05-05 19:23 | 36.58690 | -113.92724 | 20492 ft | 379 kts | 221° |
| 2026-05-05 19:24 | 36.56870 | -113.95085 | 20000 ft | 376 kts | 231° |
| 2026-05-05 19:24 | 36.55283 | -113.97662 | 19525 ft | 373 kts | 231° |
| 2026-05-05 19:24 | 36.53705 | -114.00217 | 19022 ft | 370 kts | 231° |
| 2026-05-05 19:24 | 36.52137 | -114.02738 | 18532 ft | 367 kts | 231° |
| 2026-05-05 19:25 | 36.50577 | -114.05239 | 18017 ft | 364 kts | 231° |
| 2026-05-05 19:25 | 36.49049 | -114.07690 | 17537 ft | 362 kts | 231° |
| 2026-05-05 19:25 | 36.47511 | -114.10156 | 17087 ft | 358 kts | 231° |
| 2026-05-05 19:25 | 36.45989 | -114.12598 | 16597 ft | 355 kts | 231° |
| 2026-05-05 19:26 | 36.45008 | -114.14171 | 16477 ft | 339 kts | 231° |
| 2026-05-05 19:26 | 36.43614 | -114.16408 | 16238 ft | 319 kts | 231° |
| 2026-05-05 19:26 | 36.42272 | -114.18558 | 15831 ft | 312 kts | 231° |
| 2026-05-05 19:26 | 36.40950 | -114.20672 | 15544 ft | 306 kts | 231° |
| 2026-05-05 19:27 | 36.39650 | -114.22755 | 15207 ft | 304 kts | 231° |
| 2026-05-05 19:27 | 36.38351 | -114.24827 | 14868 ft | 302 kts | 230° |
| 2026-05-05 19:27 | 36.37055 | -114.26870 | 14521 ft | 301 kts | 230° |
| 2026-05-05 19:27 | 36.35761 | -114.28898 | 14184 ft | 299 kts | 230° |
| 2026-05-05 19:28 | 36.34479 | -114.30904 | 13686 ft | 295 kts | 230° |
| 2026-05-05 19:28 | 36.33199 | -114.32906 | 13290 ft | 295 kts | 230° |
| 2026-05-05 19:28 | 36.31939 | -114.34876 | 12949 ft | 294 kts | 230° |
| 2026-05-05 19:28 | 36.30673 | -114.36855 | 12602 ft | 292 kts | 230° |
| 2026-05-05 19:29 | 36.29409 | -114.38831 | 12279 ft | 290 kts | 230° |
| 2026-05-05 19:29 | 36.28151 | -114.40796 | 11939 ft | 289 kts | 230° |
| 2026-05-05 19:29 | 36.26901 | -114.42744 | 11599 ft | 287 kts | 230° |
| 2026-05-05 19:29 | 36.25656 | -114.44686 | 11232 ft | 287 kts | 230° |
| 2026-05-05 19:30 | 36.24433 | -114.46591 | 10871 ft | 286 kts | 230° |
| 2026-05-05 19:30 | 36.23191 | -114.48504 | 10498 ft | 285 kts | 230° |
| 2026-05-05 19:30 | 36.21946 | -114.50411 | 10119 ft | 283 kts | 230° |
| 2026-05-05 19:30 | 36.20704 | -114.52310 | 9748 ft | 282 kts | 230° |
| 2026-05-05 19:31 | 36.19476 | -114.54189 | 9386 ft | 280 kts | 230° |
| 2026-05-05 19:31 | 36.18263 | -114.56048 | 9042 ft | 279 kts | 230° |
| 2026-05-05 19:31 | 36.17036 | -114.57927 | 8979 ft | 279 kts | 230° |
| 2026-05-05 19:31 | 36.15808 | -114.59804 | 8987 ft | 280 kts | 230° |
| 2026-05-05 19:32 | 36.14585 | -114.61668 | 8672 ft | 278 kts | 230° |
| 2026-05-05 19:32 | 36.13383 | -114.63499 | 8290 ft | 275 kts | 230° |
| 2026-05-05 19:32 | 36.12223 | -114.65262 | 8157 ft | 253 kts | 230° |
| 2026-05-05 19:32 | 36.11142 | -114.66909 | 8053 ft | 240 kts | 230° |
| 2026-05-05 19:33 | 36.10111 | -114.68482 | 7987 ft | 233 kts | 230° |
| 2026-05-05 19:33 | 36.09091 | -114.70042 | 7983 ft | 233 kts | 230° |
| 2026-05-05 19:33 | 36.08095 | -114.71606 | 7859 ft | 231 kts | 236° |
| 2026-05-05 19:33 | 36.07453 | -114.73417 | 7549 ft | 231 kts | 256° |
| 2026-05-05 19:34 | 36.07322 | -114.75393 | 7221 ft | 232 kts | 269° |
| 2026-05-05 19:34 | 36.07334 | -114.77383 | 6895 ft | 231 kts | 268° |
| 2026-05-05 19:34 | 36.07335 | -114.79369 | 6604 ft | 230 kts | 268° |
| 2026-05-05 19:35 | 36.07342 | -114.83137 | 6529 ft | 204 kts | 268° |
| 2026-05-05 19:35 | 36.07346 | -114.84864 | 6363 ft | 198 kts | 268° |
| 2026-05-05 19:35 | 36.07348 | -114.86557 | 6126 ft | 196 kts | 268° |
| 2026-05-05 19:35 | 36.07351 | -114.88215 | 5883 ft | 195 kts | 268° |
| 2026-05-05 19:36 | 36.07354 | -114.89887 | 5621 ft | 196 kts | 268° |
| 2026-05-05 19:36 | 36.07356 | -114.91575 | 5362 ft | 197 kts | 268° |
| 2026-05-05 19:36 | 36.07357 | -114.93284 | 5099 ft | 197 kts | 269° |
| 2026-05-05 19:36 | 36.07360 | -114.94956 | 4858 ft | 193 kts | 268° |
| 2026-05-05 19:37 | 36.07362 | -114.96609 | 4610 ft | 191 kts | 268° |
| 2026-05-05 19:37 | 36.07364 | -114.98225 | 4348 ft | 188 kts | 268° |
| 2026-05-05 19:37 | 36.07365 | -114.99791 | 4115 ft | 173 kts | 268° |
| 2026-05-05 19:37 | 36.07366 | -115.01202 | 3878 ft | 157 kts | 268° |
| 2026-05-05 19:38 | 36.07366 | -115.02501 | 3669 ft | 146 kts | 268° |
| 2026-05-05 19:38 | 36.07366 | -115.03736 | 3481 ft | 142 kts | 267° |
| 2026-05-05 19:38 | 36.07366 | -115.04939 | 3298 ft | 140 kts | 267° |
| 2026-05-05 19:38 | 36.07366 | -115.06144 | 3107 ft | 140 kts | 268° |
| 2026-05-05 19:39 | 36.07366 | -115.07348 | 2924 ft | 141 kts | 272° |
| 2026-05-05 19:39 | 36.07366 | -115.08538 | 2741 ft | 141 kts | 269° |
| 2026-05-05 19:39 | 36.07368 | -115.09764 | 2567 ft | 142 kts | 271° |
| 2026-05-05 19:39 | 36.07368 | -115.10984 | 2394 ft | 142 kts | 271° |
| 2026-05-05 19:40 | 36.07364 | -115.12202 | 2261 ft | 141 kts | 271° |
| 2026-05-05 19:40 | 36.07368 | -115.13382 | 2188 ft | 122 kts | 270° |
| 2026-05-05 19:40 | 36.07367 | -115.14208 | 2190 ft | 71 kts | 270° |
| 2026-05-05 19:40 | 36.07368 | -115.14717 | 2190 ft | 46 kts | 272° |
| 2026-05-05 19:41 | 36.07448 | -115.14984 | 2191 ft | 25 kts | 300° |
| 2026-05-05 19:41 | 36.07521 | -115.15116 | 2190 ft | 8 kts | 316° |
| 2026-05-05 19:41 | 36.07558 | -115.15147 | 2189 ft | 6 kts | 330° |
| 2026-05-05 19:41 | 36.07648 | -115.15202 | 2190 ft | 21 kts | 334° |
| 2026-05-05 19:42 | 36.07788 | -115.15281 | 2190 ft | 24 kts | 336° |
| 2026-05-05 19:42 | 36.07943 | -115.15369 | 2189 ft | 25 kts | 335° |
| 2026-05-05 19:42 | 36.08093 | -115.15457 | 2191 ft | 25 kts | 334° |
| 2026-05-05 19:42 | 36.08246 | -115.15547 | 2190 ft | 21 kts | 334° |
| 2026-05-05 19:43 | 36.08371 | -115.15621 | 2190 ft | 20 kts | 334° |
| 2026-05-05 19:43 | 36.08499 | -115.15648 | 2190 ft | 19 kts | 37° |
| 2026-05-05 19:43 | 36.08595 | -115.15582 | 2191 ft | 14 kts | 28° |
| 2026-05-05 19:43 | 36.08685 | -115.15521 | 2191 ft | 14 kts | 30° |
| 2026-05-05 19:44 | 36.08697 | -115.15427 | 2190 ft | 10 kts | 116° |
| 2026-05-05 19:44 | 36.08679 | -115.15380 | 2188 ft | 1 kts | 116° |
| 2026-05-05 19:44 | 36.08677 | -115.15375 | 2188 ft | 0 kts | 116° |
| 2026-05-05 19:44 | 36.08676 | -115.15372 | 2188 ft | 0 kts | 116° |
| 2026-05-05 19:45 | 36.08675 | -115.15371 | 2191 ft | 0 kts | 116° |